sensor_id;sensor_type;location;lat;lon;timestamp;P1;durP1;ratioP1;P2;durP2;ratioP2
21657;SDS011;10990;48.174;9.782;2023-03-20T00:01:50;2.00;;;1.60;;
21657;SDS011;10990;48.174;9.782;2023-03-20T00:04:19;2.80;;;1.60;;
21657;SDS011;10990;48.174;9.782;2023-03-20T00:06:45;2.40;;;1.63;;
21657;SDS011;10990;48.174;9.782;2023-03-20T00:09:12;1.70;;;1.60;;
21657;SDS011;10990;48.174;9.782;2023-03-20T00:11:40;1.80;;;1.57;;
21657;SDS011;10990;48.174;9.782;2023-03-20T00:14:12;2.70;;;1.77;;
21657;SDS011;10990;48.174;9.782;2023-03-20T00:16:42;1.87;;;1.60;;
21657;SDS011;10990;48.174;9.782;2023-03-20T00:19:12;1.50;;;1.40;;
21657;SDS011;10990;48.174;9.782;2023-03-20T00:21:43;1.87;;;1.57;;
21657;SDS011;10990;48.174;9.782;2023-03-20T00:24:10;4.07;;;1.90;;
21657;SDS011;10990;48.174;9.782;2023-03-20T00:26:37;2.20;;;1.80;;
21657;SDS011;10990;48.174;9.782;2023-03-20T00:29:05;1.87;;;1.67;;
21657;SDS011;10990;48.174;9.782;2023-03-20T00:31:35;2.20;;;1.90;;
21657;SDS011;10990;48.174;9.782;2023-03-20T00:34:03;2.37;;;2.00;;
21657;SDS011;10990;48.174;9.782;2023-03-20T00:36:31;2.70;;;2.10;;
21657;SDS011;10990;48.174;9.782;2023-03-20T00:38:59;2.20;;;2.00;;
21657;SDS011;10990;48.174;9.782;2023-03-20T00:41:27;2.30;;;2.00;;
21657;SDS011;10990;48.174;9.782;2023-03-20T00:43:58;3.63;;;2.10;;
21657;SDS011;10990;48.174;9.782;2023-03-20T00:46:27;3.80;;;2.40;;
21657;SDS011;10990;48.174;9.782;2023-03-20T00:48:57;3.03;;;2.33;;
21657;SDS011;10990;48.174;9.782;2023-03-20T00:51:23;2.63;;;2.20;;
21657;SDS011;10990;48.174;9.782;2023-03-20T00:53:50;2.40;;;2.20;;
21657;SDS011;10990;48.174;9.782;2023-03-20T00:56:29;2.90;;;2.07;;
21657;SDS011;10990;48.174;9.782;2023-03-20T00:58:58;2.80;;;2.27;;
21657;SDS011;10990;48.174;9.782;2023-03-20T01:01:26;2.50;;;2.30;;
21657;SDS011;10990;48.174;9.782;2023-03-20T01:03:53;3.13;;;2.40;;
21657;SDS011;10990;48.174;9.782;2023-03-20T01:06:20;2.50;;;2.30;;
21657;SDS011;10990;48.174;9.782;2023-03-20T01:08:47;3.27;;;2.40;;
21657;SDS011;10990;48.174;9.782;2023-03-20T01:11:14;2.80;;;2.50;;
21657;SDS011;10990;48.174;9.782;2023-03-20T01:13:45;3.67;;;2.70;;
21657;SDS011;10990;48.174;9.782;2023-03-20T01:16:16;3.23;;;2.67;;
21657;SDS011;10990;48.174;9.782;2023-03-20T01:18:46;3.33;;;2.33;;
21657;SDS011;10990;48.174;9.782;2023-03-20T01:21:13;2.97;;;2.60;;
21657;SDS011;10990;48.174;9.782;2023-03-20T01:23:40;5.07;;;2.80;;
21657;SDS011;10990;48.174;9.782;2023-03-20T01:26:10;2.90;;;2.60;;
21657;SDS011;10990;48.174;9.782;2023-03-20T01:28:48;3.67;;;2.70;;
21657;SDS011;10990;48.174;9.782;2023-03-20T01:31:15;2.90;;;2.70;;
21657;SDS011;10990;48.174;9.782;2023-03-20T01:33:43;2.90;;;2.57;;
21657;SDS011;10990;48.174;9.782;2023-03-20T01:36:10;3.40;;;2.70;;
21657;SDS011;10990;48.174;9.782;2023-03-20T01:38:39;2.87;;;2.40;;
21657;SDS011;10990;48.174;9.782;2023-03-20T01:41:07;4.37;;;2.70;;
21657;SDS011;10990;48.174;9.782;2023-03-20T01:43:39;4.20;;;2.40;;
21657;SDS011;10990;48.174;9.782;2023-03-20T01:46:16;2.73;;;2.47;;
21657;SDS011;10990;48.174;9.782;2023-03-20T01:52:00;3.53;;;2.60;;
21657;SDS011;10990;48.174;9.782;2023-03-20T01:54:30;4.07;;;2.80;;
21657;SDS011;10990;48.174;9.782;2023-03-20T01:57:05;5.07;;;3.30;;
21657;SDS011;10990;48.174;9.782;2023-03-20T01:59:36;3.70;;;2.97;;
21657;SDS011;10990;48.174;9.782;2023-03-20T02:02:11;3.10;;;2.80;;
21657;SDS011;10990;48.174;9.782;2023-03-20T02:04:42;4.03;;;2.90;;
21657;SDS011;10990;48.174;9.782;2023-03-20T02:07:14;3.53;;;2.87;;
21657;SDS011;10990;48.174;9.782;2023-03-20T02:09:53;3.07;;;2.60;;
21657;SDS011;10990;48.174;9.782;2023-03-20T02:12:32;3.03;;;2.73;;
21657;SDS011;10990;48.174;9.782;2023-03-20T02:15:02;3.90;;;2.93;;
21657;SDS011;10990;48.174;9.782;2023-03-20T02:17:51;3.30;;;2.70;;
21657;SDS011;10990;48.174;9.782;2023-03-20T02:20:21;4.63;;;2.77;;
21657;SDS011;10990;48.174;9.782;2023-03-20T02:23:05;4.10;;;3.10;;
21657;SDS011;10990;48.174;9.782;2023-03-20T02:26:04;5.37;;;3.23;;
21657;SDS011;10990;48.174;9.782;2023-03-20T02:35:11;4.17;;;3.20;;
21657;SDS011;10990;48.174;9.782;2023-03-20T02:38:06;3.50;;;3.20;;
21657;SDS011;10990;48.174;9.782;2023-03-20T02:40:43;3.87;;;3.30;;
21657;SDS011;10990;48.174;9.782;2023-03-20T02:43:18;4.27;;;3.20;;
21657;SDS011;10990;48.174;9.782;2023-03-20T02:45:51;3.70;;;3.10;;
21657;SDS011;10990;48.174;9.782;2023-03-20T02:48:32;3.97;;;3.00;;
21657;SDS011;10990;48.174;9.782;2023-03-20T02:51:09;5.17;;;3.33;;
21657;SDS011;10990;48.174;9.782;2023-03-20T02:53:45;3.93;;;3.37;;
21657;SDS011;10990;48.174;9.782;2023-03-20T02:56:21;5.50;;;4.30;;
21657;SDS011;10990;48.174;9.782;2023-03-20T02:58:57;4.27;;;3.87;;
21657;SDS011;10990;48.174;9.782;2023-03-20T03:01:34;4.13;;;3.70;;
21657;SDS011;10990;48.174;9.782;2023-03-20T03:04:06;4.40;;;3.93;;
21657;SDS011;10990;48.174;9.782;2023-03-20T03:06:38;6.80;;;4.37;;
21657;SDS011;10990;48.174;9.782;2023-03-20T03:09:12;7.07;;;4.57;;
21657;SDS011;10990;48.174;9.782;2023-03-20T03:11:43;6.40;;;5.00;;
21657;SDS011;10990;48.174;9.782;2023-03-20T03:14:16;7.03;;;5.57;;
21657;SDS011;10990;48.174;9.782;2023-03-20T03:16:47;7.87;;;5.73;;
21657;SDS011;10990;48.174;9.782;2023-03-20T03:19:18;8.07;;;6.47;;
21657;SDS011;10990;48.174;9.782;2023-03-20T03:21:48;6.90;;;5.87;;
21657;SDS011;10990;48.174;9.782;2023-03-20T03:24:23;6.43;;;5.50;;
21657;SDS011;10990;48.174;9.782;2023-03-20T03:26:54;6.00;;;5.03;;
21657;SDS011;10990;48.174;9.782;2023-03-20T03:29:23;7.23;;;5.70;;
21657;SDS011;10990;48.174;9.782;2023-03-20T03:31:53;7.97;;;5.90;;
21657;SDS011;10990;48.174;9.782;2023-03-20T03:34:21;7.90;;;6.00;;
21657;SDS011;10990;48.174;9.782;2023-03-20T03:36:50;7.83;;;5.07;;
21657;SDS011;10990;48.174;9.782;2023-03-20T03:39:28;6.87;;;5.13;;
21657;SDS011;10990;48.174;9.782;2023-03-20T03:42:04;6.03;;;4.93;;
21657;SDS011;10990;48.174;9.782;2023-03-20T03:44:40;7.27;;;5.47;;
21657;SDS011;10990;48.174;9.782;2023-03-20T03:47:11;6.60;;;5.00;;
21657;SDS011;10990;48.174;9.782;2023-03-20T03:49:43;6.43;;;5.67;;
21657;SDS011;10990;48.174;9.782;2023-03-20T03:52:15;6.97;;;5.47;;
21657;SDS011;10990;48.174;9.782;2023-03-20T03:54:48;7.30;;;5.80;;
21657;SDS011;10990;48.174;9.782;2023-03-20T03:57:30;7.10;;;5.40;;
21657;SDS011;10990;48.174;9.782;2023-03-20T04:00:05;6.07;;;4.47;;
21657;SDS011;10990;48.174;9.782;2023-03-20T04:02:38;6.30;;;5.10;;
21657;SDS011;10990;48.174;9.782;2023-03-20T04:05:08;6.73;;;5.10;;
21657;SDS011;10990;48.174;9.782;2023-03-20T04:07:35;7.53;;;5.10;;
21657;SDS011;10990;48.174;9.782;2023-03-20T04:10:04;6.57;;;5.30;;
21657;SDS011;10990;48.174;9.782;2023-03-20T04:12:35;5.53;;;5.00;;
21657;SDS011;10990;48.174;9.782;2023-03-20T04:15:07;6.40;;;4.90;;
21657;SDS011;10990;48.174;9.782;2023-03-20T04:17:35;6.27;;;4.77;;
21657;SDS011;10990;48.174;9.782;2023-03-20T04:20:03;6.37;;;5.20;;
21657;SDS011;10990;48.174;9.782;2023-03-20T04:22:30;6.53;;;4.83;;
21657;SDS011;10990;48.174;9.782;2023-03-20T04:25:06;6.13;;;4.77;;
21657;SDS011;10990;48.174;9.782;2023-03-20T04:27:34;5.60;;;4.57;;
21657;SDS011;10990;48.174;9.782;2023-03-20T04:30:09;7.17;;;5.10;;
21657;SDS011;10990;48.174;9.782;2023-03-20T04:32:55;5.13;;;4.30;;
21657;SDS011;10990;48.174;9.782;2023-03-20T04:35:31;6.00;;;4.70;;
21657;SDS011;10990;48.174;9.782;2023-03-20T04:38:02;5.80;;;4.80;;
21657;SDS011;10990;48.174;9.782;2023-03-20T04:40:33;6.30;;;5.27;;
21657;SDS011;10990;48.174;9.782;2023-03-20T04:43:01;6.03;;;4.83;;
21657;SDS011;10990;48.174;9.782;2023-03-20T04:45:28;8.83;;;5.63;;
21657;SDS011;10990;48.174;9.782;2023-03-20T04:47:55;7.73;;;5.47;;
21657;SDS011;10990;48.174;9.782;2023-03-20T04:50:22;6.63;;;5.33;;
21657;SDS011;10990;48.174;9.782;2023-03-20T04:52:50;6.87;;;5.23;;
21657;SDS011;10990;48.174;9.782;2023-03-20T04:55:17;7.20;;;5.97;;
21657;SDS011;10990;48.174;9.782;2023-03-20T04:57:45;7.33;;;5.30;;
21657;SDS011;10990;48.174;9.782;2023-03-20T05:00:12;6.77;;;5.10;;
21657;SDS011;10990;48.174;9.782;2023-03-20T05:02:39;7.23;;;5.40;;
21657;SDS011;10990;48.174;9.782;2023-03-20T05:05:06;6.87;;;5.20;;
21657;SDS011;10990;48.174;9.782;2023-03-20T05:07:34;7.60;;;5.60;;
21657;SDS011;10990;48.174;9.782;2023-03-20T05:10:07;8.27;;;5.47;;
21657;SDS011;10990;48.174;9.782;2023-03-20T05:12:46;6.23;;;5.00;;
21657;SDS011;10990;48.174;9.782;2023-03-20T05:15:22;7.13;;;5.20;;
21657;SDS011;10990;48.174;9.782;2023-03-20T05:18:03;6.93;;;5.17;;
21657;SDS011;10990;48.174;9.782;2023-03-20T05:20:50;6.10;;;4.87;;
21657;SDS011;10990;48.174;9.782;2023-03-20T05:23:29;8.00;;;5.40;;
21657;SDS011;10990;48.174;9.782;2023-03-20T05:26:15;6.03;;;5.10;;
21657;SDS011;10990;48.174;9.782;2023-03-20T05:29:03;10.37;;;5.87;;
21657;SDS011;10990;48.174;9.782;2023-03-20T05:31:56;8.87;;;6.63;;
21657;SDS011;10990;48.174;9.782;2023-03-20T05:34:49;9.17;;;6.40;;
21657;SDS011;10990;48.174;9.782;2023-03-20T05:37:21;9.57;;;6.40;;
21657;SDS011;10990;48.174;9.782;2023-03-20T05:40:07;8.67;;;6.50;;
21657;SDS011;10990;48.174;9.782;2023-03-20T05:42:46;8.00;;;5.53;;
21657;SDS011;10990;48.174;9.782;2023-03-20T05:45:49;6.70;;;4.43;;
21657;SDS011;10990;48.174;9.782;2023-03-20T05:48:42;6.17;;;4.73;;
21657;SDS011;10990;48.174;9.782;2023-03-20T05:51:11;7.10;;;4.20;;
21657;SDS011;10990;48.174;9.782;2023-03-20T05:53:52;6.63;;;4.53;;
21657;SDS011;10990;48.174;9.782;2023-03-20T05:56:37;6.10;;;4.50;;
21657;SDS011;10990;48.174;9.782;2023-03-20T05:59:22;4.67;;;4.17;;
21657;SDS011;10990;48.174;9.782;2023-03-20T06:02:16;7.47;;;4.57;;
21657;SDS011;10990;48.174;9.782;2023-03-20T06:04:51;7.73;;;4.60;;
21657;SDS011;10990;48.174;9.782;2023-03-20T06:07:27;7.90;;;4.83;;
21657;SDS011;10990;48.174;9.782;2023-03-20T06:10:00;8.03;;;5.00;;
21657;SDS011;10990;48.174;9.782;2023-03-20T06:12:29;6.23;;;4.67;;
21657;SDS011;10990;48.174;9.782;2023-03-20T06:14:56;7.63;;;4.73;;
21657;SDS011;10990;48.174;9.782;2023-03-20T06:17:25;6.20;;;4.60;;
21657;SDS011;10990;48.174;9.782;2023-03-20T06:19:58;7.23;;;4.70;;
21657;SDS011;10990;48.174;9.782;2023-03-20T06:22:25;6.77;;;5.57;;
21657;SDS011;10990;48.174;9.782;2023-03-20T06:24:53;8.27;;;6.10;;
21657;SDS011;10990;48.174;9.782;2023-03-20T06:27:26;10.43;;;7.20;;
21657;SDS011;10990;48.174;9.782;2023-03-20T06:29:53;10.50;;;7.37;;
21657;SDS011;10990;48.174;9.782;2023-03-20T06:32:29;11.10;;;7.23;;
21657;SDS011;10990;48.174;9.782;2023-03-20T06:34:57;9.33;;;6.40;;
21657;SDS011;10990;48.174;9.782;2023-03-20T06:37:24;8.03;;;5.90;;
21657;SDS011;10990;48.174;9.782;2023-03-20T06:39:59;10.30;;;6.47;;
21657;SDS011;10990;48.174;9.782;2023-03-20T06:42:26;8.53;;;6.10;;
21657;SDS011;10990;48.174;9.782;2023-03-20T06:44:54;8.07;;;6.20;;
21657;SDS011;10990;48.174;9.782;2023-03-20T06:47:41;8.43;;;5.93;;
21657;SDS011;10990;48.174;9.782;2023-03-20T06:50:08;8.07;;;5.43;;
21657;SDS011;10990;48.174;9.782;2023-03-20T06:52:35;7.23;;;5.20;;
21657;SDS011;10990;48.174;9.782;2023-03-20T06:55:21;5.97;;;4.50;;
21657;SDS011;10990;48.174;9.782;2023-03-20T06:57:48;5.77;;;4.43;;
21657;SDS011;10990;48.174;9.782;2023-03-20T07:00:16;7.60;;;5.03;;
21657;SDS011;10990;48.174;9.782;2023-03-20T07:02:46;7.03;;;4.90;;
21657;SDS011;10990;48.174;9.782;2023-03-20T07:05:14;7.60;;;4.73;;
21657;SDS011;10990;48.174;9.782;2023-03-20T07:07:43;5.67;;;4.43;;
21657;SDS011;10990;48.174;9.782;2023-03-20T07:10:10;5.93;;;4.57;;
21657;SDS011;10990;48.174;9.782;2023-03-20T07:12:37;7.30;;;4.90;;
21657;SDS011;10990;48.174;9.782;2023-03-20T07:15:04;6.30;;;5.20;;
21657;SDS011;10990;48.174;9.782;2023-03-20T07:17:32;8.30;;;4.63;;
21657;SDS011;10990;48.174;9.782;2023-03-20T07:20:00;6.43;;;4.70;;
21657;SDS011;10990;48.174;9.782;2023-03-20T07:22:28;7.40;;;4.37;;
21657;SDS011;10990;48.174;9.782;2023-03-20T07:25:24;6.03;;;4.17;;
21657;SDS011;10990;48.174;9.782;2023-03-20T07:27:53;4.83;;;3.80;;
21657;SDS011;10990;48.174;9.782;2023-03-20T07:30:23;5.00;;;3.93;;
21657;SDS011;10990;48.174;9.782;2023-03-20T07:32:50;4.33;;;3.50;;
21657;SDS011;10990;48.174;9.782;2023-03-20T07:35:20;4.87;;;3.60;;
21657;SDS011;10990;48.174;9.782;2023-03-20T07:37:46;4.77;;;3.60;;
21657;SDS011;10990;48.174;9.782;2023-03-20T07:40:13;5.30;;;3.67;;
21657;SDS011;10990;48.174;9.782;2023-03-20T07:42:55;4.95;;;3.65;;
21657;SDS011;10990;48.174;9.782;2023-03-20T07:45:40;5.68;;;3.60;;
21657;SDS011;10990;48.174;9.782;2023-03-20T07:48:07;5.47;;;3.47;;
21657;SDS011;10990;48.174;9.782;2023-03-20T07:50:35;5.47;;;3.70;;
21657;SDS011;10990;48.174;9.782;2023-03-20T07:53:02;5.45;;;3.72;;
21657;SDS011;10990;48.174;9.782;2023-03-20T07:55:29;3.72;;;3.25;;
21657;SDS011;10990;48.174;9.782;2023-03-20T07:57:56;7.20;;;3.10;;
21657;SDS011;10990;48.174;9.782;2023-03-20T08:00:22;3.60;;;2.40;;
21657;SDS011;10990;48.174;9.782;2023-03-20T08:02:49;5.10;;;3.10;;
21657;SDS011;10990;48.174;9.782;2023-03-20T08:05:16;2.70;;;2.30;;
21657;SDS011;10990;48.174;9.782;2023-03-20T08:07:44;2.00;;;1.80;;
21657;SDS011;10990;48.174;9.782;2023-03-20T08:10:11;2.35;;;1.50;;
21657;SDS011;10990;48.174;9.782;2023-03-20T08:12:37;2.65;;;1.40;;
21657;SDS011;10990;48.174;9.782;2023-03-20T08:15:04;2.40;;;1.73;;
21657;SDS011;10990;48.174;9.782;2023-03-20T08:17:32;2.45;;;1.67;;
21657;SDS011;10990;48.174;9.782;2023-03-20T08:19:58;1.40;;;1.30;;
21657;SDS011;10990;48.174;9.782;2023-03-20T08:22:25;1.90;;;1.40;;
21657;SDS011;10990;48.174;9.782;2023-03-20T08:24:53;1.50;;;1.40;;
21657;SDS011;10990;48.174;9.782;2023-03-20T08:27:20;1.50;;;1.40;;
21657;SDS011;10990;48.174;9.782;2023-03-20T08:29:46;2.05;;;1.40;;
21657;SDS011;10990;48.174;9.782;2023-03-20T08:32:13;1.92;;;1.50;;
21657;SDS011;10990;48.174;9.782;2023-03-20T08:34:40;1.30;;;1.20;;
21657;SDS011;10990;48.174;9.782;2023-03-20T08:37:07;2.25;;;1.70;;
21657;SDS011;10990;48.174;9.782;2023-03-20T08:39:34;2.28;;;1.73;;
21657;SDS011;10990;48.174;9.782;2023-03-20T08:42:03;1.73;;;1.52;;
21657;SDS011;10990;48.174;9.782;2023-03-20T08:44:30;1.73;;;1.45;;
21657;SDS011;10990;48.174;9.782;2023-03-20T08:46:57;1.83;;;1.45;;
21657;SDS011;10990;48.174;9.782;2023-03-20T08:49:23;1.60;;;1.40;;
21657;SDS011;10990;48.174;9.782;2023-03-20T08:51:50;1.60;;;1.50;;
21657;SDS011;10990;48.174;9.782;2023-03-20T08:54:17;1.40;;;1.30;;
21657;SDS011;10990;48.174;9.782;2023-03-20T08:56:44;2.80;;;1.50;;
21657;SDS011;10990;48.174;9.782;2023-03-20T08:59:12;2.35;;;1.30;;
21657;SDS011;10990;48.174;9.782;2023-03-20T09:01:39;1.83;;;1.45;;
21657;SDS011;10990;48.174;9.782;2023-03-20T09:04:06;1.40;;;1.30;;
21657;SDS011;10990;48.174;9.782;2023-03-20T09:06:34;1.38;;;1.23;;
21657;SDS011;10990;48.174;9.782;2023-03-20T09:09:02;1.25;;;1.15;;
21657;SDS011;10990;48.174;9.782;2023-03-20T09:11:29;2.40;;;1.02;;
21657;SDS011;10990;48.174;9.782;2023-03-20T09:13:56;1.15;;;1.05;;
21657;SDS011;10990;48.174;9.782;2023-03-20T09:16:24;1.17;;;1.10;;
21657;SDS011;10990;48.174;9.782;2023-03-20T09:18:51;0.90;;;0.90;;
21657;SDS011;10990;48.174;9.782;2023-03-20T09:21:18;2.42;;;1.10;;
21657;SDS011;10990;48.174;9.782;2023-03-20T09:23:45;1.17;;;1.08;;
21657;SDS011;10990;48.174;9.782;2023-03-20T09:26:12;1.10;;;1.00;;
21657;SDS011;10990;48.174;9.782;2023-03-20T09:28:39;2.65;;;0.90;;
21657;SDS011;10990;48.174;9.782;2023-03-20T09:31:05;0.90;;;0.90;;
21657;SDS011;10990;48.174;9.782;2023-03-20T09:33:33;1.00;;;0.90;;
21657;SDS011;10990;48.174;9.782;2023-03-20T09:36:01;2.00;;;1.10;;
21657;SDS011;10990;48.174;9.782;2023-03-20T09:38:27;0.98;;;0.90;;
21657;SDS011;10990;48.174;9.782;2023-03-20T09:40:55;1.92;;;0.95;;
21657;SDS011;10990;48.174;9.782;2023-03-20T09:43:26;1.65;;;1.00;;
21657;SDS011;10990;48.174;9.782;2023-03-20T09:46:06;1.63;;;1.13;;
21657;SDS011;10990;48.174;9.782;2023-03-20T09:48:47;2.55;;;1.30;;
21657;SDS011;10990;48.174;9.782;2023-03-20T09:51:20;1.38;;;1.02;;
21657;SDS011;10990;48.174;9.782;2023-03-20T09:53:55;1.25;;;1.10;;
21657;SDS011;10990;48.174;9.782;2023-03-20T09:56:28;1.27;;;1.00;;
21657;SDS011;10990;48.174;9.782;2023-03-20T09:58:56;1.98;;;1.00;;
21657;SDS011;10990;48.174;9.782;2023-03-20T10:01:25;1.17;;;1.10;;
21657;SDS011;10990;48.174;9.782;2023-03-20T10:03:58;2.67;;;1.38;;
21657;SDS011;10990;48.174;9.782;2023-03-20T10:06:27;1.77;;;1.10;;
21657;SDS011;10990;48.174;9.782;2023-03-20T10:08:54;1.10;;;1.00;;
21657;SDS011;10990;48.174;9.782;2023-03-20T10:11:34;2.13;;;1.10;;
21657;SDS011;10990;48.174;9.782;2023-03-20T10:14:17;2.70;;;1.10;;
21657;SDS011;10990;48.174;9.782;2023-03-20T10:16:53;1.20;;;1.10;;
21657;SDS011;10990;48.174;9.782;2023-03-20T10:19:31;1.33;;;1.23;;
21657;SDS011;10990;48.174;9.782;2023-03-20T10:22:05;1.23;;;1.13;;
21657;SDS011;10990;48.174;9.782;2023-03-20T10:24:41;1.17;;;1.15;;
21657;SDS011;10990;48.174;9.782;2023-03-20T10:27:15;2.33;;;1.23;;
21657;SDS011;10990;48.174;9.782;2023-03-20T10:29:48;1.27;;;1.17;;
21657;SDS011;10990;48.174;9.782;2023-03-20T10:32:26;2.78;;;1.23;;
21657;SDS011;10990;48.174;9.782;2023-03-20T10:35:04;2.17;;;1.10;;
21657;SDS011;10990;48.174;9.782;2023-03-20T10:37:44;1.00;;;1.00;;
21657;SDS011;10990;48.174;9.782;2023-03-20T10:40:26;1.10;;;1.00;;
21657;SDS011;10990;48.174;9.782;2023-03-20T10:42:56;2.47;;;1.10;;
21657;SDS011;10990;48.174;9.782;2023-03-20T10:45:28;1.00;;;1.00;;
21657;SDS011;10990;48.174;9.782;2023-03-20T10:48:01;1.52;;;1.10;;
21657;SDS011;10990;48.174;9.782;2023-03-20T10:50:36;1.95;;;1.27;;
21657;SDS011;10990;48.174;9.782;2023-03-20T10:53:07;1.10;;;1.00;;
21657;SDS011;10990;48.174;9.782;2023-03-20T10:55:44;1.15;;;1.10;;
21657;SDS011;10990;48.174;9.782;2023-03-20T10:58:13;1.13;;;1.02;;
21657;SDS011;10990;48.174;9.782;2023-03-20T11:00:43;1.20;;;1.10;;
21657;SDS011;10990;48.174;9.782;2023-03-20T11:03:15;1.70;;;1.02;;
21657;SDS011;10990;48.174;9.782;2023-03-20T11:05:49;0.85;;;0.85;;
21657;SDS011;10990;48.174;9.782;2023-03-20T11:08:21;1.10;;;0.88;;
21657;SDS011;10990;48.174;9.782;2023-03-20T11:10:56;0.82;;;0.80;;
21657;SDS011;10990;48.174;9.782;2023-03-20T11:13:26;1.10;;;1.00;;
21657;SDS011;10990;48.174;9.782;2023-03-20T11:15:56;0.80;;;0.80;;
21657;SDS011;10990;48.174;9.782;2023-03-20T11:18:33;0.95;;;0.73;;
21657;SDS011;10990;48.174;9.782;2023-03-20T11:21:01;0.60;;;0.60;;
21657;SDS011;10990;48.174;9.782;2023-03-20T11:23:28;0.80;;;0.60;;
21657;SDS011;10990;48.174;9.782;2023-03-20T11:25:59;0.70;;;0.70;;
21657;SDS011;10990;48.174;9.782;2023-03-20T11:28:31;0.50;;;0.50;;
21657;SDS011;10990;48.174;9.782;2023-03-20T11:31:02;0.85;;;0.40;;
21657;SDS011;10990;48.174;9.782;2023-03-20T11:33:31;1.77;;;0.68;;
21657;SDS011;10990;48.174;9.782;2023-03-20T11:36:09;2.65;;;0.70;;
21657;SDS011;10990;48.174;9.782;2023-03-20T11:38:42;0.70;;;0.70;;
21657;SDS011;10990;48.174;9.782;2023-03-20T11:41:15;0.93;;;0.70;;
21657;SDS011;10990;48.174;9.782;2023-03-20T11:43:43;0.60;;;0.60;;
21657;SDS011;10990;48.174;9.782;2023-03-20T11:46:10;1.38;;;0.70;;
21657;SDS011;10990;48.174;9.782;2023-03-20T11:48:39;0.80;;;0.60;;
21657;SDS011;10990;48.174;9.782;2023-03-20T11:51:10;1.10;;;0.60;;
21657;SDS011;10990;48.174;9.782;2023-03-20T11:53:41;0.55;;;0.55;;
21657;SDS011;10990;48.174;9.782;2023-03-20T11:56:23;1.45;;;0.60;;
21657;SDS011;10990;48.174;9.782;2023-03-20T11:58:54;1.42;;;0.50;;
21657;SDS011;10990;48.174;9.782;2023-03-20T12:01:22;0.90;;;0.50;;
21657;SDS011;10990;48.174;9.782;2023-03-20T12:03:51;0.73;;;0.68;;
21657;SDS011;10990;48.174;9.782;2023-03-20T12:06:38;2.10;;;0.60;;
21657;SDS011;10990;48.174;9.782;2023-03-20T12:09:12;0.73;;;0.73;;
21657;SDS011;10990;48.174;9.782;2023-03-20T12:11:51;1.17;;;0.60;;
21657;SDS011;10990;48.174;9.782;2023-03-20T12:14:22;0.50;;;0.50;;
21657;SDS011;10990;48.174;9.782;2023-03-20T12:17:00;1.30;;;0.60;;
21657;SDS011;10990;48.174;9.782;2023-03-20T12:19:37;1.23;;;0.80;;
21657;SDS011;10990;48.174;9.782;2023-03-20T12:22:11;0.95;;;0.70;;
21657;SDS011;10990;48.174;9.782;2023-03-20T12:24:48;0.60;;;0.60;;
21657;SDS011;10990;48.174;9.782;2023-03-20T12:27:22;2.25;;;0.80;;
21657;SDS011;10990;48.174;9.782;2023-03-20T12:29:54;0.60;;;0.60;;
21657;SDS011;10990;48.174;9.782;2023-03-20T12:32:26;0.70;;;0.70;;
21657;SDS011;10990;48.174;9.782;2023-03-20T12:35:02;0.63;;;0.60;;
21657;SDS011;10990;48.174;9.782;2023-03-20T12:37:33;2.38;;;0.70;;
21657;SDS011;10990;48.174;9.782;2023-03-20T12:40:00;0.50;;;0.50;;
21657;SDS011;10990;48.174;9.782;2023-03-20T12:42:32;0.57;;;0.57;;
21657;SDS011;10990;48.174;9.782;2023-03-20T12:45:10;0.68;;;0.65;;
21657;SDS011;10990;48.174;9.782;2023-03-20T12:47:52;0.70;;;0.70;;
21657;SDS011;10990;48.174;9.782;2023-03-20T12:50:29;0.70;;;0.70;;
21657;SDS011;10990;48.174;9.782;2023-03-20T12:53:03;0.70;;;0.70;;
21657;SDS011;10990;48.174;9.782;2023-03-20T12:55:46;1.17;;;0.68;;
21657;SDS011;10990;48.174;9.782;2023-03-20T12:58:22;0.60;;;0.60;;
21657;SDS011;10990;48.174;9.782;2023-03-20T13:00:57;0.60;;;0.60;;
21657;SDS011;10990;48.174;9.782;2023-03-20T13:03:38;1.75;;;0.70;;
21657;SDS011;10990;48.174;9.782;2023-03-20T13:06:18;0.50;;;0.50;;
21657;SDS011;10990;48.174;9.782;2023-03-20T13:09:00;1.45;;;0.50;;
21657;SDS011;10990;48.174;9.782;2023-03-20T13:11:43;0.50;;;0.50;;
21657;SDS011;10990;48.174;9.782;2023-03-20T13:14:18;0.57;;;0.57;;
21657;SDS011;10990;48.174;9.782;2023-03-20T13:16:53;0.60;;;0.57;;
21657;SDS011;10990;48.174;9.782;2023-03-20T13:19:29;0.50;;;0.50;;
21657;SDS011;10990;48.174;9.782;2023-03-20T13:22:02;0.57;;;0.57;;
21657;SDS011;10990;48.174;9.782;2023-03-20T13:24:39;0.50;;;0.50;;
21657;SDS011;10990;48.174;9.782;2023-03-20T13:27:13;0.70;;;0.70;;
21657;SDS011;10990;48.174;9.782;2023-03-20T13:29:51;0.60;;;0.60;;
21657;SDS011;10990;48.174;9.782;2023-03-20T13:32:30;0.50;;;0.50;;
21657;SDS011;10990;48.174;9.782;2023-03-20T13:35:12;0.88;;;0.70;;
21657;SDS011;10990;48.174;9.782;2023-03-20T13:37:53;0.73;;;0.57;;
21657;SDS011;10990;48.174;9.782;2023-03-20T13:40:25;1.17;;;0.70;;
21657;SDS011;10990;48.174;9.782;2023-03-20T13:42:56;0.90;;;0.50;;
21657;SDS011;10990;48.174;9.782;2023-03-20T13:45:28;0.55;;;0.55;;
21657;SDS011;10990;48.174;9.782;2023-03-20T13:48:01;0.75;;;0.60;;
21657;SDS011;10990;48.174;9.782;2023-03-20T13:50:37;0.50;;;0.50;;
21657;SDS011;10990;48.174;9.782;2023-03-20T13:53:13;0.50;;;0.50;;
21657;SDS011;10990;48.174;9.782;2023-03-20T13:55:53;1.77;;;0.77;;
21657;SDS011;10990;48.174;9.782;2023-03-20T13:58:29;0.63;;;0.57;;
21657;SDS011;10990;48.174;9.782;2023-03-20T14:01:16;0.70;;;0.65;;
21657;SDS011;10990;48.174;9.782;2023-03-20T14:03:50;0.70;;;0.70;;
21657;SDS011;10990;48.174;9.782;2023-03-20T14:06:42;0.70;;;0.70;;
21657;SDS011;10990;48.174;9.782;2023-03-20T14:09:24;2.05;;;0.70;;
21657;SDS011;10990;48.174;9.782;2023-03-20T14:11:55;0.80;;;0.68;;
21657;SDS011;10990;48.174;9.782;2023-03-20T14:14:26;0.70;;;0.70;;
21657;SDS011;10990;48.174;9.782;2023-03-20T14:16:59;1.02;;;0.70;;
21657;SDS011;10990;48.174;9.782;2023-03-20T14:19:28;0.68;;;0.60;;
21657;SDS011;10990;48.174;9.782;2023-03-20T14:21:55;0.70;;;0.70;;
21657;SDS011;10990;48.174;9.782;2023-03-20T14:24:23;2.35;;;0.80;;
21657;SDS011;10990;48.174;9.782;2023-03-20T14:26:55;0.75;;;0.70;;
21657;SDS011;10990;48.174;9.782;2023-03-20T14:29:34;2.15;;;0.85;;
21657;SDS011;10990;48.174;9.782;2023-03-20T14:32:03;0.90;;;0.75;;
21657;SDS011;10990;48.174;9.782;2023-03-20T14:34:47;0.65;;;0.65;;
21657;SDS011;10990;48.174;9.782;2023-03-20T14:37:26;0.85;;;0.70;;
21657;SDS011;10990;48.174;9.782;2023-03-20T14:40:05;0.80;;;0.70;;
21657;SDS011;10990;48.174;9.782;2023-03-20T14:42:47;0.60;;;0.60;;
21657;SDS011;10990;48.174;9.782;2023-03-20T14:45:33;0.65;;;0.65;;
21657;SDS011;10990;48.174;9.782;2023-03-20T14:48:05;1.50;;;1.10;;
21657;SDS011;10990;48.174;9.782;2023-03-20T14:50:37;0.80;;;0.70;;
21657;SDS011;10990;48.174;9.782;2023-03-20T14:53:08;0.77;;;0.60;;
21657;SDS011;10990;48.174;9.782;2023-03-20T15:01:24;0.70;;;0.70;;
21657;SDS011;10990;48.174;9.782;2023-03-20T15:03:55;1.02;;;0.60;;
21657;SDS011;10990;48.174;9.782;2023-03-20T15:06:26;2.30;;;0.80;;
21657;SDS011;10990;48.174;9.782;2023-03-20T15:08:54;1.65;;;1.00;;
21657;SDS011;10990;48.174;9.782;2023-03-20T15:11:23;1.15;;;0.73;;
21657;SDS011;10990;48.174;9.782;2023-03-20T15:13:51;1.73;;;0.98;;
21657;SDS011;10990;48.174;9.782;2023-03-20T15:16:26;2.03;;;1.00;;
21657;SDS011;10990;48.174;9.782;2023-03-20T15:18:54;1.00;;;0.90;;
21657;SDS011;10990;48.174;9.782;2023-03-20T15:21:26;0.70;;;0.70;;
21657;SDS011;10990;48.174;9.782;2023-03-20T15:23:55;0.70;;;0.70;;
21657;SDS011;10990;48.174;9.782;2023-03-20T15:26:23;1.05;;;0.88;;
21657;SDS011;10990;48.174;9.782;2023-03-20T15:28:54;1.58;;;0.80;;
21657;SDS011;10990;48.174;9.782;2023-03-20T15:31:27;1.10;;;0.80;;
21657;SDS011;10990;48.174;9.782;2023-03-20T15:33:57;0.68;;;0.68;;
21657;SDS011;10990;48.174;9.782;2023-03-20T15:36:25;3.30;;;0.90;;